sensor_id;sensor_type;location;lat;lon;timestamp;P1;durP1;ratioP1;P2;durP2;ratioP2
44169;SDS011;29836;52.286;9.576;2024-02-28T00:00:08;17.02;;;8.98;;
44169;SDS011;29836;52.286;9.576;2024-02-28T00:02:35;18.80;;;8.68;;
44169;SDS011;29836;52.286;9.576;2024-02-28T00:05:01;18.48;;;8.95;;
44169;SDS011;29836;52.286;9.576;2024-02-28T00:07:27;18.35;;;9.05;;
44169;SDS011;29836;52.286;9.576;2024-02-28T00:09:52;22.02;;;10.70;;
44169;SDS011;29836;52.286;9.576;2024-02-28T00:12:22;19.13;;;9.50;;
44169;SDS011;29836;52.286;9.576;2024-02-28T00:14:51;22.48;;;9.30;;
44169;SDS011;29836;52.286;9.576;2024-02-28T00:17:16;22.42;;;10.35;;
44169;SDS011;29836;52.286;9.576;2024-02-28T00:19:42;23.52;;;10.95;;
44169;SDS011;29836;52.286;9.576;2024-02-28T00:22:08;27.05;;;12.23;;
44169;SDS011;29836;52.286;9.576;2024-02-28T00:24:34;22.02;;;10.80;;
44169;SDS011;29836;52.286;9.576;2024-02-28T00:26:59;22.45;;;11.82;;
44169;SDS011;29836;52.286;9.576;2024-02-28T00:29:25;24.55;;;11.48;;
44169;SDS011;29836;52.286;9.576;2024-02-28T00:31:51;27.13;;;11.18;;
44169;SDS011;29836;52.286;9.576;2024-02-28T00:34:17;27.05;;;11.63;;
44169;SDS011;29836;52.286;9.576;2024-02-28T00:36:42;24.63;;;11.32;;
44169;SDS011;29836;52.286;9.576;2024-02-28T00:39:08;26.15;;;11.05;;
44169;SDS011;29836;52.286;9.576;2024-02-28T00:41:34;19.80;;;9.75;;
44169;SDS011;29836;52.286;9.576;2024-02-28T00:43:59;21.52;;;10.93;;
44169;SDS011;29836;52.286;9.576;2024-02-28T00:46:25;30.42;;;12.00;;
44169;SDS011;29836;52.286;9.576;2024-02-28T00:48:50;23.67;;;10.02;;
44169;SDS011;29836;52.286;9.576;2024-02-28T00:51:16;22.30;;;10.50;;
44169;SDS011;29836;52.286;9.576;2024-02-28T00:53:41;23.40;;;8.93;;
44169;SDS011;29836;52.286;9.576;2024-02-28T00:56:08;23.42;;;9.90;;
44169;SDS011;29836;52.286;9.576;2024-02-28T00:58:33;25.77;;;11.57;;
44169;SDS011;29836;52.286;9.576;2024-02-28T01:00:59;24.33;;;10.77;;
44169;SDS011;29836;52.286;9.576;2024-02-28T01:03:24;24.55;;;10.85;;
44169;SDS011;29836;52.286;9.576;2024-02-28T01:05:50;22.58;;;10.18;;
44169;SDS011;29836;52.286;9.576;2024-02-28T01:08:16;20.52;;;9.00;;
44169;SDS011;29836;52.286;9.576;2024-02-28T01:10:45;28.52;;;11.65;;
44169;SDS011;29836;52.286;9.576;2024-02-28T01:13:11;22.70;;;10.20;;
44169;SDS011;29836;52.286;9.576;2024-02-28T01:15:39;23.52;;;10.00;;
44169;SDS011;29836;52.286;9.576;2024-02-28T01:18:05;21.50;;;10.38;;
44169;SDS011;29836;52.286;9.576;2024-02-28T01:20:31;23.60;;;10.23;;
44169;SDS011;29836;52.286;9.576;2024-02-28T01:22:56;22.23;;;10.15;;
44169;SDS011;29836;52.286;9.576;2024-02-28T01:25:22;22.58;;;9.30;;
44169;SDS011;29836;52.286;9.576;2024-02-28T01:27:47;24.55;;;11.40;;
44169;SDS011;29836;52.286;9.576;2024-02-28T01:30:13;25.88;;;12.10;;
44169;SDS011;29836;52.286;9.576;2024-02-28T01:32:38;25.38;;;10.38;;
44169;SDS011;29836;52.286;9.576;2024-02-28T01:35:04;26.83;;;10.90;;
44169;SDS011;29836;52.286;9.576;2024-02-28T01:37:30;32.20;;;11.07;;
44169;SDS011;29836;52.286;9.576;2024-02-28T01:39:55;23.23;;;9.65;;
44169;SDS011;29836;52.286;9.576;2024-02-28T01:42:21;26.05;;;9.27;;
44169;SDS011;29836;52.286;9.576;2024-02-28T01:44:47;26.00;;;10.60;;
44169;SDS011;29836;52.286;9.576;2024-02-28T01:47:13;26.23;;;10.82;;
44169;SDS011;29836;52.286;9.576;2024-02-28T01:49:40;27.45;;;10.90;;
44169;SDS011;29836;52.286;9.576;2024-02-28T01:52:07;24.33;;;9.55;;
44169;SDS011;29836;52.286;9.576;2024-02-28T01:54:34;23.98;;;10.82;;
44169;SDS011;29836;52.286;9.576;2024-02-28T01:57:00;27.70;;;10.70;;
44169;SDS011;29836;52.286;9.576;2024-02-28T01:59:26;23.30;;;10.07;;
44169;SDS011;29836;52.286;9.576;2024-02-28T02:01:53;24.67;;;12.05;;
44169;SDS011;29836;52.286;9.576;2024-02-28T02:04:19;28.52;;;12.50;;
44169;SDS011;29836;52.286;9.576;2024-02-28T02:06:45;23.92;;;9.57;;
44169;SDS011;29836;52.286;9.576;2024-02-28T02:09:12;28.30;;;12.18;;
44169;SDS011;29836;52.286;9.576;2024-02-28T02:11:38;30.73;;;12.35;;
44169;SDS011;29836;52.286;9.576;2024-02-28T02:14:04;24.35;;;10.50;;
44169;SDS011;29836;52.286;9.576;2024-02-28T02:16:29;30.45;;;12.00;;
44169;SDS011;29836;52.286;9.576;2024-02-28T02:18:55;28.17;;;10.23;;
44169;SDS011;29836;52.286;9.576;2024-02-28T02:21:22;26.35;;;11.25;;
44169;SDS011;29836;52.286;9.576;2024-02-28T02:23:49;26.83;;;10.35;;
44169;SDS011;29836;52.286;9.576;2024-02-28T02:26:15;30.35;;;11.98;;
44169;SDS011;29836;52.286;9.576;2024-02-28T02:28:40;32.25;;;12.95;;
44169;SDS011;29836;52.286;9.576;2024-02-28T02:31:06;33.83;;;13.02;;
44169;SDS011;29836;52.286;9.576;2024-02-28T02:33:31;36.60;;;14.20;;
44169;SDS011;29836;52.286;9.576;2024-02-28T02:35:57;36.40;;;14.30;;
44169;SDS011;29836;52.286;9.576;2024-02-28T02:38:23;35.35;;;14.35;;
44169;SDS011;29836;52.286;9.576;2024-02-28T02:40:49;42.35;;;15.10;;
44169;SDS011;29836;52.286;9.576;2024-02-28T02:43:15;38.63;;;14.55;;
44169;SDS011;29836;52.286;9.576;2024-02-28T02:45:41;34.03;;;13.38;;
44169;SDS011;29836;52.286;9.576;2024-02-28T02:48:08;40.10;;;14.15;;
44169;SDS011;29836;52.286;9.576;2024-02-28T02:50:33;37.78;;;14.13;;
44169;SDS011;29836;52.286;9.576;2024-02-28T02:52:59;39.13;;;13.57;;
44169;SDS011;29836;52.286;9.576;2024-02-28T02:55:24;38.55;;;15.32;;
44169;SDS011;29836;52.286;9.576;2024-02-28T02:57:50;41.22;;;13.75;;
44169;SDS011;29836;52.286;9.576;2024-02-28T03:00:15;42.75;;;14.85;;
44169;SDS011;29836;52.286;9.576;2024-02-28T03:02:41;44.45;;;14.98;;
44169;SDS011;29836;52.286;9.576;2024-02-28T03:05:07;39.58;;;14.80;;
44169;SDS011;29836;52.286;9.576;2024-02-28T03:07:32;36.28;;;13.82;;
44169;SDS011;29836;52.286;9.576;2024-02-28T03:09:58;36.22;;;13.77;;
44169;SDS011;29836;52.286;9.576;2024-02-28T03:12:24;39.03;;;13.77;;
44169;SDS011;29836;52.286;9.576;2024-02-28T03:14:50;35.90;;;14.30;;
44169;SDS011;29836;52.286;9.576;2024-02-28T03:17:15;32.88;;;11.90;;
44169;SDS011;29836;52.286;9.576;2024-02-28T03:19:41;35.05;;;12.98;;
44169;SDS011;29836;52.286;9.576;2024-02-28T03:22:07;36.88;;;12.80;;
44169;SDS011;29836;52.286;9.576;2024-02-28T03:24:33;27.45;;;12.43;;
44169;SDS011;29836;52.286;9.576;2024-02-28T03:27:00;29.30;;;12.05;;
44169;SDS011;29836;52.286;9.576;2024-02-28T03:29:27;32.15;;;11.85;;
44169;SDS011;29836;52.286;9.576;2024-02-28T03:31:52;30.40;;;12.98;;
44169;SDS011;29836;52.286;9.576;2024-02-28T03:34:18;30.88;;;12.25;;
44169;SDS011;29836;52.286;9.576;2024-02-28T03:36:44;36.20;;;15.60;;
44169;SDS011;29836;52.286;9.576;2024-02-28T03:39:09;34.95;;;13.02;;
44169;SDS011;29836;52.286;9.576;2024-02-28T03:41:35;32.55;;;11.88;;
44169;SDS011;29836;52.286;9.576;2024-02-28T03:44:00;37.60;;;12.90;;
44169;SDS011;29836;52.286;9.576;2024-02-28T03:46:26;36.80;;;13.60;;
44169;SDS011;29836;52.286;9.576;2024-02-28T03:48:52;34.80;;;12.98;;
44169;SDS011;29836;52.286;9.576;2024-02-28T03:51:17;34.30;;;13.30;;
44169;SDS011;29836;52.286;9.576;2024-02-28T03:53:43;29.65;;;13.10;;
44169;SDS011;29836;52.286;9.576;2024-02-28T03:56:08;39.00;;;13.60;;
44169;SDS011;29836;52.286;9.576;2024-02-28T03:58:34;35.72;;;14.60;;
44169;SDS011;29836;52.286;9.576;2024-02-28T04:01:00;31.10;;;14.02;;
44169;SDS011;29836;52.286;9.576;2024-02-28T04:03:25;41.28;;;13.10;;
44169;SDS011;29836;52.286;9.576;2024-02-28T04:05:51;38.05;;;13.10;;
44169;SDS011;29836;52.286;9.576;2024-02-28T04:08:16;34.25;;;14.15;;
44169;SDS011;29836;52.286;9.576;2024-02-28T04:10:42;34.47;;;13.50;;
44169;SDS011;29836;52.286;9.576;2024-02-28T04:13:07;35.63;;;13.90;;
44169;SDS011;29836;52.286;9.576;2024-02-28T04:15:33;35.63;;;15.38;;
44169;SDS011;29836;52.286;9.576;2024-02-28T04:17:58;39.88;;;15.00;;
44169;SDS011;29836;52.286;9.576;2024-02-28T04:20:24;38.15;;;14.65;;
44169;SDS011;29836;52.286;9.576;2024-02-28T04:22:49;39.25;;;14.10;;
44169;SDS011;29836;52.286;9.576;2024-02-28T04:25:15;33.75;;;15.95;;
44169;SDS011;29836;52.286;9.576;2024-02-28T04:27:41;31.63;;;13.65;;
44169;SDS011;29836;52.286;9.576;2024-02-28T04:30:06;34.03;;;14.35;;
44169;SDS011;29836;52.286;9.576;2024-02-28T04:32:32;37.50;;;14.52;;
44169;SDS011;29836;52.286;9.576;2024-02-28T04:34:58;40.63;;;16.17;;
44169;SDS011;29836;52.286;9.576;2024-02-28T04:37:23;43.88;;;16.38;;
44169;SDS011;29836;52.286;9.576;2024-02-28T04:39:49;44.70;;;14.68;;
44169;SDS011;29836;52.286;9.576;2024-02-28T04:42:15;43.42;;;16.25;;
44169;SDS011;29836;52.286;9.576;2024-02-28T04:44:41;50.47;;;16.25;;
44169;SDS011;29836;52.286;9.576;2024-02-28T04:47:07;45.95;;;17.35;;
44169;SDS011;29836;52.286;9.576;2024-02-28T04:49:32;51.88;;;16.10;;
44169;SDS011;29836;52.286;9.576;2024-02-28T04:52:01;45.85;;;15.68;;
44169;SDS011;29836;52.286;9.576;2024-02-28T04:54:26;48.10;;;15.70;;
44169;SDS011;29836;52.286;9.576;2024-02-28T04:56:52;53.78;;;16.52;;
44169;SDS011;29836;52.286;9.576;2024-02-28T04:59:17;48.53;;;17.98;;
44169;SDS011;29836;52.286;9.576;2024-02-28T05:01:43;48.10;;;16.08;;
44169;SDS011;29836;52.286;9.576;2024-02-28T05:04:10;46.10;;;16.23;;
44169;SDS011;29836;52.286;9.576;2024-02-28T05:06:36;48.08;;;17.88;;
44169;SDS011;29836;52.286;9.576;2024-02-28T05:09:01;51.47;;;16.73;;
44169;SDS011;29836;52.286;9.576;2024-02-28T05:11:27;50.15;;;15.77;;
44169;SDS011;29836;52.286;9.576;2024-02-28T05:13:53;44.88;;;17.10;;
44169;SDS011;29836;52.286;9.576;2024-02-28T05:16:18;57.20;;;18.63;;
44169;SDS011;29836;52.286;9.576;2024-02-28T05:18:44;46.58;;;18.77;;
44169;SDS011;29836;52.286;9.576;2024-02-28T05:21:10;50.65;;;17.88;;
44169;SDS011;29836;52.286;9.576;2024-02-28T05:23:36;51.78;;;18.17;;
44169;SDS011;29836;52.286;9.576;2024-02-28T05:26:02;56.20;;;19.52;;
44169;SDS011;29836;52.286;9.576;2024-02-28T05:28:29;55.60;;;18.63;;
44169;SDS011;29836;52.286;9.576;2024-02-28T05:30:55;51.95;;;17.75;;
44169;SDS011;29836;52.286;9.576;2024-02-28T05:33:21;48.75;;;18.10;;
44169;SDS011;29836;52.286;9.576;2024-02-28T05:35:47;42.80;;;16.75;;
44169;SDS011;29836;52.286;9.576;2024-02-28T05:38:12;43.28;;;16.65;;
44169;SDS011;29836;52.286;9.576;2024-02-28T05:40:38;52.97;;;18.35;;
44169;SDS011;29836;52.286;9.576;2024-02-28T05:43:03;52.00;;;17.30;;
44169;SDS011;29836;52.286;9.576;2024-02-28T05:45:29;47.88;;;16.80;;
44169;SDS011;29836;52.286;9.576;2024-02-28T05:47:55;48.28;;;17.55;;
44169;SDS011;29836;52.286;9.576;2024-02-28T05:50:20;39.97;;;15.80;;
44169;SDS011;29836;52.286;9.576;2024-02-28T05:52:46;47.33;;;18.13;;
44169;SDS011;29836;52.286;9.576;2024-02-28T05:55:12;50.15;;;17.73;;
44169;SDS011;29836;52.286;9.576;2024-02-28T05:57:37;40.67;;;15.57;;
44169;SDS011;29836;52.286;9.576;2024-02-28T06:00:04;51.38;;;17.02;;
44169;SDS011;29836;52.286;9.576;2024-02-28T06:02:35;49.20;;;17.38;;
44169;SDS011;29836;52.286;9.576;2024-02-28T06:05:03;49.75;;;16.17;;
44169;SDS011;29836;52.286;9.576;2024-02-28T06:07:29;54.67;;;18.08;;
44169;SDS011;29836;52.286;9.576;2024-02-28T06:09:55;50.25;;;18.88;;
44169;SDS011;29836;52.286;9.576;2024-02-28T06:12:20;53.42;;;18.70;;
44169;SDS011;29836;52.286;9.576;2024-02-28T06:14:46;63.28;;;19.92;;
44169;SDS011;29836;52.286;9.576;2024-02-28T06:17:12;50.90;;;19.23;;
44169;SDS011;29836;52.286;9.576;2024-02-28T06:19:38;52.95;;;18.75;;
44169;SDS011;29836;52.286;9.576;2024-02-28T06:22:03;56.65;;;18.25;;
44169;SDS011;29836;52.286;9.576;2024-02-28T06:24:29;61.22;;;19.50;;
44169;SDS011;29836;52.286;9.576;2024-02-28T06:26:54;75.78;;;25.13;;
44169;SDS011;29836;52.286;9.576;2024-02-28T06:29:20;78.18;;;27.08;;
44169;SDS011;29836;52.286;9.576;2024-02-28T06:31:53;64.05;;;22.83;;
44169;SDS011;29836;52.286;9.576;2024-02-28T06:34:20;74.43;;;22.67;;
44169;SDS011;29836;52.286;9.576;2024-02-28T06:36:47;63.85;;;21.95;;
44169;SDS011;29836;52.286;9.576;2024-02-28T06:39:13;60.50;;;19.92;;
44169;SDS011;29836;52.286;9.576;2024-02-28T06:41:38;64.07;;;22.05;;
44169;SDS011;29836;52.286;9.576;2024-02-28T06:44:04;57.75;;;19.85;;
44169;SDS011;29836;52.286;9.576;2024-02-28T06:46:29;59.33;;;20.67;;
44169;SDS011;29836;52.286;9.576;2024-02-28T06:48:55;55.33;;;19.15;;
44169;SDS011;29836;52.286;9.576;2024-02-28T06:51:20;64.38;;;21.35;;
44169;SDS011;29836;52.286;9.576;2024-02-28T06:53:46;71.47;;;23.05;;
44169;SDS011;29836;52.286;9.576;2024-02-28T06:56:11;75.45;;;23.85;;
44169;SDS011;29836;52.286;9.576;2024-02-28T06:58:37;79.15;;;24.23;;
44169;SDS011;29836;52.286;9.576;2024-02-28T07:01:03;68.25;;;21.75;;
44169;SDS011;29836;52.286;9.576;2024-02-28T07:03:28;66.20;;;22.35;;
44169;SDS011;29836;52.286;9.576;2024-02-28T07:05:54;57.90;;;21.02;;
44169;SDS011;29836;52.286;9.576;2024-02-28T07:08:20;64.00;;;21.40;;
44169;SDS011;29836;52.286;9.576;2024-02-28T07:10:46;63.95;;;20.67;;
44169;SDS011;29836;52.286;9.576;2024-02-28T07:13:14;63.15;;;22.85;;
44169;SDS011;29836;52.286;9.576;2024-02-28T07:15:40;66.05;;;20.42;;
44169;SDS011;29836;52.286;9.576;2024-02-28T07:18:06;51.47;;;21.23;;
44169;SDS011;29836;52.286;9.576;2024-02-28T07:20:32;61.38;;;20.92;;
44169;SDS011;29836;52.286;9.576;2024-02-28T07:22:58;60.20;;;22.27;;
44169;SDS011;29836;52.286;9.576;2024-02-28T07:25:24;53.65;;;20.73;;
44169;SDS011;29836;52.286;9.576;2024-02-28T07:27:49;51.22;;;19.38;;
44169;SDS011;29836;52.286;9.576;2024-02-28T07:30:15;55.97;;;21.20;;
44169;SDS011;29836;52.286;9.576;2024-02-28T07:32:41;49.58;;;20.20;;
44169;SDS011;29836;52.286;9.576;2024-02-28T07:35:06;47.20;;;19.52;;
44169;SDS011;29836;52.286;9.576;2024-02-28T07:37:32;43.92;;;18.08;;
44169;SDS011;29836;52.286;9.576;2024-02-28T07:39:58;47.22;;;20.13;;
44169;SDS011;29836;52.286;9.576;2024-02-28T07:42:23;40.47;;;18.88;;
44169;SDS011;29836;52.286;9.576;2024-02-28T07:44:49;34.40;;;15.27;;
44169;SDS011;29836;52.286;9.576;2024-02-28T07:47:18;37.63;;;18.13;;
44169;SDS011;29836;52.286;9.576;2024-02-28T07:49:44;35.92;;;16.17;;
44169;SDS011;29836;52.286;9.576;2024-02-28T07:52:10;36.15;;;17.67;;
44169;SDS011;29836;52.286;9.576;2024-02-28T07:54:35;34.35;;;16.58;;
44169;SDS011;29836;52.286;9.576;2024-02-28T07:57:01;33.80;;;15.68;;
44169;SDS011;29836;52.286;9.576;2024-02-28T07:59:27;35.35;;;15.68;;
44169;SDS011;29836;52.286;9.576;2024-02-28T08:01:52;34.28;;;16.25;;
44169;SDS011;29836;52.286;9.576;2024-02-28T08:04:18;31.85;;;15.38;;
44169;SDS011;29836;52.286;9.576;2024-02-28T08:06:44;32.55;;;15.40;;
44169;SDS011;29836;52.286;9.576;2024-02-28T08:09:09;33.28;;;15.73;;
44169;SDS011;29836;52.286;9.576;2024-02-28T08:11:35;32.92;;;15.77;;
44169;SDS011;29836;52.286;9.576;2024-02-28T08:14:00;36.05;;;16.50;;
44169;SDS011;29836;52.286;9.576;2024-02-28T08:16:26;30.67;;;15.75;;
44169;SDS011;29836;52.286;9.576;2024-02-28T08:18:51;29.40;;;15.35;;
44169;SDS011;29836;52.286;9.576;2024-02-28T08:21:17;27.20;;;14.38;;
44169;SDS011;29836;52.286;9.576;2024-02-28T08:23:43;26.60;;;14.23;;
44169;SDS011;29836;52.286;9.576;2024-02-28T08:26:08;26.17;;;13.88;;
44169;SDS011;29836;52.286;9.576;2024-02-28T08:28:34;28.30;;;13.88;;
44169;SDS011;29836;52.286;9.576;2024-02-28T08:30:59;23.15;;;13.25;;
44169;SDS011;29836;52.286;9.576;2024-02-28T08:33:25;23.92;;;13.05;;
44169;SDS011;29836;52.286;9.576;2024-02-28T08:35:51;24.58;;;13.10;;
44169;SDS011;29836;52.286;9.576;2024-02-28T08:38:16;22.10;;;12.80;;
44169;SDS011;29836;52.286;9.576;2024-02-28T08:40:42;22.27;;;12.70;;
44169;SDS011;29836;52.286;9.576;2024-02-28T08:43:07;21.55;;;12.65;;
44169;SDS011;29836;52.286;9.576;2024-02-28T08:45:33;22.73;;;13.00;;
44169;SDS011;29836;52.286;9.576;2024-02-28T08:47:59;22.58;;;12.60;;
44169;SDS011;29836;52.286;9.576;2024-02-28T08:50:26;23.20;;;13.00;;
44169;SDS011;29836;52.286;9.576;2024-02-28T08:52:53;19.40;;;12.23;;
44169;SDS011;29836;52.286;9.576;2024-02-28T08:55:18;22.00;;;13.52;;
44169;SDS011;29836;52.286;9.576;2024-02-28T08:57:46;21.30;;;12.15;;
44169;SDS011;29836;52.286;9.576;2024-02-28T09:00:11;19.05;;;12.43;;
44169;SDS011;29836;52.286;9.576;2024-02-28T09:02:37;20.75;;;12.35;;
44169;SDS011;29836;52.286;9.576;2024-02-28T09:05:04;20.33;;;12.23;;
44169;SDS011;29836;52.286;9.576;2024-02-28T09:07:29;20.30;;;12.43;;
44169;SDS011;29836;52.286;9.576;2024-02-28T09:09:55;19.48;;;12.93;;
44169;SDS011;29836;52.286;9.576;2024-02-28T09:12:20;20.70;;;13.38;;
44169;SDS011;29836;52.286;9.576;2024-02-28T09:14:46;20.55;;;12.95;;
44169;SDS011;29836;52.286;9.576;2024-02-28T09:17:14;22.38;;;13.43;;
44169;SDS011;29836;52.286;9.576;2024-02-28T09:19:39;21.80;;;13.85;;
44169;SDS011;29836;52.286;9.576;2024-02-28T09:22:05;24.17;;;13.35;;
44169;SDS011;29836;52.286;9.576;2024-02-28T09:24:30;23.48;;;13.85;;
44169;SDS011;29836;52.286;9.576;2024-02-28T09:26:56;26.50;;;15.13;;
44169;SDS011;29836;52.286;9.576;2024-02-28T09:29:22;22.70;;;14.25;;
44169;SDS011;29836;52.286;9.576;2024-02-28T09:31:47;22.45;;;14.13;;
44169;SDS011;29836;52.286;9.576;2024-02-28T09:34:13;21.85;;;13.88;;
44169;SDS011;29836;52.286;9.576;2024-02-28T09:36:41;21.65;;;13.70;;
44169;SDS011;29836;52.286;9.576;2024-02-28T09:39:08;22.48;;;13.90;;
44169;SDS011;29836;52.286;9.576;2024-02-28T09:41:33;22.70;;;14.00;;
44169;SDS011;29836;52.286;9.576;2024-02-28T09:43:59;24.85;;;14.90;;
44169;SDS011;29836;52.286;9.576;2024-02-28T09:46:27;21.73;;;14.10;;
44169;SDS011;29836;52.286;9.576;2024-02-28T09:48:53;21.65;;;13.38;;
44169;SDS011;29836;52.286;9.576;2024-02-28T09:51:21;24.15;;;14.65;;
44169;SDS011;29836;52.286;9.576;2024-02-28T09:53:48;20.13;;;13.38;;
44169;SDS011;29836;52.286;9.576;2024-02-28T09:56:14;22.73;;;13.50;;
44169;SDS011;29836;52.286;9.576;2024-02-28T09:58:41;24.10;;;13.93;;
44169;SDS011;29836;52.286;9.576;2024-02-28T10:01:07;22.42;;;13.90;;
44169;SDS011;29836;52.286;9.576;2024-02-28T10:03:35;21.40;;;13.25;;
44169;SDS011;29836;52.286;9.576;2024-02-28T10:06:03;21.17;;;13.38;;
44169;SDS011;29836;52.286;9.576;2024-02-28T10:08:28;22.42;;;14.32;;
44169;SDS011;29836;52.286;9.576;2024-02-28T10:10:54;24.75;;;14.70;;
44169;SDS011;29836;52.286;9.576;2024-02-28T10:13:21;24.40;;;14.63;;
44169;SDS011;29836;52.286;9.576;2024-02-28T10:15:47;22.27;;;13.75;;
44169;SDS011;29836;52.286;9.576;2024-02-28T10:18:14;22.83;;;13.88;;
44169;SDS011;29836;52.286;9.576;2024-02-28T10:20:39;26.35;;;14.77;;
44169;SDS011;29836;52.286;9.576;2024-02-28T10:23:05;24.48;;;14.52;;
44169;SDS011;29836;52.286;9.576;2024-02-28T10:25:33;23.35;;;13.55;;
44169;SDS011;29836;52.286;9.576;2024-02-28T10:28:06;27.33;;;14.85;;
44169;SDS011;29836;52.286;9.576;2024-02-28T10:30:31;23.20;;;14.35;;
44169;SDS011;29836;52.286;9.576;2024-02-28T10:32:57;25.10;;;15.02;;
44169;SDS011;29836;52.286;9.576;2024-02-28T10:35:22;24.35;;;14.60;;
44169;SDS011;29836;52.286;9.576;2024-02-28T10:37:50;24.35;;;15.18;;
44169;SDS011;29836;52.286;9.576;2024-02-28T10:40:17;24.95;;;14.75;;
44169;SDS011;29836;52.286;9.576;2024-02-28T10:42:45;27.17;;;15.82;;
44169;SDS011;29836;52.286;9.576;2024-02-28T10:45:13;23.13;;;14.73;;
44169;SDS011;29836;52.286;9.576;2024-02-28T10:47:40;23.35;;;14.63;;
44169;SDS011;29836;52.286;9.576;2024-02-28T10:50:06;24.23;;;14.90;;
44169;SDS011;29836;52.286;9.576;2024-02-28T10:52:33;27.17;;;15.18;;
44169;SDS011;29836;52.286;9.576;2024-02-28T10:54:59;21.42;;;13.50;;
44169;SDS011;29836;52.286;9.576;2024-02-28T10:57:26;24.45;;;14.77;;
44169;SDS011;29836;52.286;9.576;2024-02-28T10:59:54;24.25;;;14.77;;
44169;SDS011;29836;52.286;9.576;2024-02-28T11:02:21;25.70;;;14.32;;
44169;SDS011;29836;52.286;9.576;2024-02-28T11:04:50;23.95;;;14.27;;
44169;SDS011;29836;52.286;9.576;2024-02-28T11:07:20;23.83;;;15.25;;
44169;SDS011;29836;52.286;9.576;2024-02-28T11:09:53;25.90;;;15.77;;
44169;SDS011;29836;52.286;9.576;2024-02-28T11:12:26;25.90;;;16.40;;
44169;SDS011;29836;52.286;9.576;2024-02-28T11:14:57;25.77;;;15.43;;
44169;SDS011;29836;52.286;9.576;2024-02-28T11:17:30;27.80;;;16.33;;
44169;SDS011;29836;52.286;9.576;2024-02-28T11:19:56;27.65;;;16.02;;
44169;SDS011;29836;52.286;9.576;2024-02-28T11:22:22;24.58;;;14.43;;
44169;SDS011;29836;52.286;9.576;2024-02-28T11:24:47;24.92;;;14.57;;
44169;SDS011;29836;52.286;9.576;2024-02-28T11:27:16;27.05;;;14.30;;
44169;SDS011;29836;52.286;9.576;2024-02-28T11:29:41;27.48;;;14.90;;
44169;SDS011;29836;52.286;9.576;2024-02-28T11:32:07;27.55;;;14.73;;
44169;SDS011;29836;52.286;9.576;2024-02-28T11:34:35;27.17;;;14.95;;
44169;SDS011;29836;52.286;9.576;2024-02-28T11:37:00;27.02;;;13.45;;
44169;SDS011;29836;52.286;9.576;2024-02-28T11:39:28;28.75;;;14.40;;
44169;SDS011;29836;52.286;9.576;2024-02-28T11:42:07;27.90;;;13.27;;
44169;SDS011;29836;52.286;9.576;2024-02-28T11:44:34;27.10;;;13.48;;
44169;SDS011;29836;52.286;9.576;2024-02-28T11:46:59;29.33;;;13.07;;
44169;SDS011;29836;52.286;9.576;2024-02-28T11:49:25;31.40;;;14.65;;
44169;SDS011;29836;52.286;9.576;2024-02-28T11:51:50;27.60;;;13.60;;
44169;SDS011;29836;52.286;9.576;2024-02-28T11:54:16;27.70;;;13.98;;
44169;SDS011;29836;52.286;9.576;2024-02-28T11:56:41;30.58;;;14.00;;
44169;SDS011;29836;52.286;9.576;2024-02-28T11:59:07;27.13;;;14.07;;
44169;SDS011;29836;52.286;9.576;2024-02-28T12:01:36;28.30;;;13.90;;
44169;SDS011;29836;52.286;9.576;2024-02-28T12:04:06;27.73;;;13.50;;
44169;SDS011;29836;52.286;9.576;2024-02-28T12:06:32;30.95;;;14.40;;
44169;SDS011;29836;52.286;9.576;2024-02-28T12:09:05;27.08;;;13.88;;
44169;SDS011;29836;52.286;9.576;2024-02-28T12:11:33;29.45;;;13.20;;
44169;SDS011;29836;52.286;9.576;2024-02-28T12:14:04;29.05;;;13.80;;
44169;SDS011;29836;52.286;9.576;2024-02-28T12:16:33;28.85;;;13.00;;
44169;SDS011;29836;52.286;9.576;2024-02-28T12:19:03;28.00;;;12.55;;
44169;SDS011;29836;52.286;9.576;2024-02-28T12:21:32;26.70;;;13.13;;
44169;SDS011;29836;52.286;9.576;2024-02-28T12:23:58;25.27;;;12.93;;
44169;SDS011;29836;52.286;9.576;2024-02-28T12:26:24;25.90;;;11.82;;
44169;SDS011;29836;52.286;9.576;2024-02-28T12:28:49;27.42;;;12.98;;
44169;SDS011;29836;52.286;9.576;2024-02-28T12:31:15;28.92;;;12.85;;
44169;SDS011;29836;52.286;9.576;2024-02-28T12:33:40;30.73;;;13.38;;
44169;SDS011;29836;52.286;9.576;2024-02-28T12:36:07;30.85;;;12.80;;
44169;SDS011;29836;52.286;9.576;2024-02-28T12:38:33;25.42;;;11.48;;
44169;SDS011;29836;52.286;9.576;2024-02-28T12:40:58;22.15;;;10.90;;
44169;SDS011;29836;52.286;9.576;2024-02-28T12:43:24;23.65;;;10.73;;
44169;SDS011;29836;52.286;9.576;2024-02-28T12:45:52;24.10;;;10.57;;
44169;SDS011;29836;52.286;9.576;2024-02-28T12:48:18;24.38;;;11.27;;
44169;SDS011;29836;52.286;9.576;2024-02-28T12:50:43;25.73;;;11.15;;
44169;SDS011;29836;52.286;9.576;2024-02-28T12:53:09;25.83;;;11.93;;
44169;SDS011;29836;52.286;9.576;2024-02-28T12:55:34;22.05;;;10.75;;
44169;SDS011;29836;52.286;9.576;2024-02-28T12:58:00;24.13;;;10.55;;
44169;SDS011;29836;52.286;9.576;2024-02-28T13:00:29;21.80;;;10.90;;
44169;SDS011;29836;52.286;9.576;2024-02-28T13:02:55;26.45;;;11.35;;
44169;SDS011;29836;52.286;9.576;2024-02-28T13:05:20;29.58;;;13.15;;
44169;SDS011;29836;52.286;9.576;2024-02-28T13:07:46;23.00;;;10.70;;
44169;SDS011;29836;52.286;9.576;2024-02-28T13:10:11;25.85;;;11.75;;
44169;SDS011;29836;52.286;9.576;2024-02-28T13:12:37;27.23;;;12.32;;
44169;SDS011;29836;52.286;9.576;2024-02-28T13:15:03;26.67;;;13.18;;
44169;SDS011;29836;52.286;9.576;2024-02-28T13:17:30;29.70;;;12.95;;
44169;SDS011;29836;52.286;9.576;2024-02-28T13:19:55;25.80;;;12.05;;
44169;SDS011;29836;52.286;9.576;2024-02-28T13:22:21;28.75;;;12.52;;
44169;SDS011;29836;52.286;9.576;2024-02-28T13:24:47;27.75;;;12.38;;
44169;SDS011;29836;52.286;9.576;2024-02-28T13:27:12;26.38;;;11.93;;
44169;SDS011;29836;52.286;9.576;2024-02-28T13:29:38;24.52;;;11.45;;
44169;SDS011;29836;52.286;9.576;2024-02-28T13:32:03;25.40;;;12.18;;
44169;SDS011;29836;52.286;9.576;2024-02-28T13:34:29;23.23;;;10.73;;
44169;SDS011;29836;52.286;9.576;2024-02-28T13:36:55;23.60;;;11.00;;
44169;SDS011;29836;52.286;9.576;2024-02-28T13:39:20;26.35;;;11.77;;
44169;SDS011;29836;52.286;9.576;2024-02-28T13:41:48;26.65;;;11.63;;
44169;SDS011;29836;52.286;9.576;2024-02-28T13:44:16;26.25;;;12.50;;
44169;SDS011;29836;52.286;9.576;2024-02-28T13:46:42;25.23;;;11.95;;
44169;SDS011;29836;52.286;9.576;2024-02-28T13:49:07;25.48;;;11.77;;
44169;SDS011;29836;52.286;9.576;2024-02-28T13:51:33;30.70;;;12.98;;
44169;SDS011;29836;52.286;9.576;2024-02-28T13:53:59;26.05;;;12.25;;
44169;SDS011;29836;52.286;9.576;2024-02-28T13:56:24;23.15;;;10.70;;
44169;SDS011;29836;52.286;9.576;2024-02-28T13:58:50;26.40;;;12.70;;
44169;SDS011;29836;52.286;9.576;2024-02-28T14:01:15;24.77;;;11.25;;
44169;SDS011;29836;52.286;9.576;2024-02-28T14:03:42;24.45;;;10.85;;
44169;SDS011;29836;52.286;9.576;2024-02-28T14:06:08;23.75;;;11.13;;
44169;SDS011;29836;52.286;9.576;2024-02-28T14:08:33;24.80;;;11.60;;
44169;SDS011;29836;52.286;9.576;2024-02-28T14:10:59;23.55;;;11.10;;
44169;SDS011;29836;52.286;9.576;2024-02-28T14:13:24;24.10;;;11.35;;